Time;durP1;ratioP1;P1;durP2;ratioP2;P2;SDS_P1;SDS_P2;PMS_P1;PMS_P2;Temp;Humidity;BMP_temperature;BMP_pressure;BME280_temperature;BME280_humidity;BME280_pressure;Samples;Min_cycle;Max_cycle;Signal;HPM_P1;HPM_P2
2021/12/02 00:00:16;;;;;;;11.63;2.13;;;3.10;99.90;;;;;;5035143;28;20025;-79
2021/12/02 00:02:41;;;;;;;10.63;1.83;;;3.10;99.90;;;;;;5033457;28;20037;-79
2021/12/02 00:05:07;;;;;;;13.73;1.90;;;3.10;99.90;;;;;;5034832;28;20486;-80
2021/12/02 00:07:33;;;;;;;8.75;1.80;;;3.20;99.90;;;;;;5034900;28;20121;-79
2021/12/02 00:10:00;;;;;;;10.63;1.60;;;3.20;99.90;;;;;;5034829;28;20030;-80
2021/12/02 00:12:26;;;;;;;9.80;2.00;;;3.20;99.90;;;;;;5035189;28;20021;-79
2021/12/02 00:14:52;;;;;;;13.40;1.80;;;3.20;99.90;;;;;;5034170;28;20029;-80
2021/12/02 00:22:29;;;;;;;14.60;1.98;;;3.50;99.90;;;;;;5036479;28;20032;-80
2021/12/02 00:25:00;;;;;;;7.13;1.38;;;3.60;99.90;;;;;;5054464;28;20025;-80
2021/12/02 00:27:28;;;;;;;8.30;1.50;;;3.60;99.90;;;;;;5054887;28;20490;-80
2021/12/02 00:29:57;;;;;;;15.20;1.80;;;3.70;99.90;;;;;;5052854;28;20029;-80
2021/12/02 00:32:25;;;;;;;19.42;1.58;;;3.70;99.90;;;;;;5054364;28;20029;-80
2021/12/02 00:34:51;;;;;;;9.23;1.70;;;3.70;99.90;;;;;;5054289;28;20110;-80
2021/12/02 00:37:17;;;;;;;13.77;1.38;;;3.90;99.90;;;;;;5054237;28;20383;-80
2021/12/02 00:39:43;;;;;;;11.07;1.52;;;3.90;99.90;;;;;;5054282;28;20135;-80
2021/12/02 00:42:09;;;;;;;9.82;1.40;;;3.90;99.90;;;;;;5054141;28;20075;-80
2021/12/02 00:44:37;;;;;;;9.45;1.60;;;4.10;99.90;;;;;;5053875;28;20020;-80
2021/12/02 00:47:03;;;;;;;10.27;1.38;;;4.10;99.90;;;;;;5052968;28;20024;-80
2021/12/02 00:49:30;;;;;;;13.32;2.10;;;4.10;99.90;;;;;;5052489;28;20031;-80
2021/12/02 00:51:59;;;;;;;10.93;1.35;;;4.00;99.90;;;;;;5053904;28;20025;-80
2021/12/02 00:54:27;;;;;;;12.50;2.00;;;3.90;99.90;;;;;;5054144;28;20048;-80
2021/12/02 00:56:54;;;;;;;12.20;1.50;;;3.90;99.90;;;;;;5052550;28;20480;-80
2021/12/02 00:59:21;;;;;;;9.05;1.42;;;3.90;99.90;;;;;;5053583;28;20529;-80
2021/12/02 01:01:48;;;;;;;8.98;1.20;;;3.90;99.90;;;;;;5068591;28;20091;-80
2021/12/02 01:04:21;;;;;;;9.20;1.40;;;3.70;99.90;;;;;;5073670;28;20024;-80
2021/12/02 01:06:47;;;;;;;9.55;1.30;;;3.70;99.90;;;;;;5073760;28;20408;-80
2021/12/02 01:09:13;;;;;;;13.10;1.40;;;3.60;99.90;;;;;;5073660;28;20101;-80
2021/12/02 01:11:40;;;;;;;7.80;1.33;;;3.60;99.90;;;;;;5073699;28;20060;-80
2021/12/02 01:14:07;;;;;;;10.18;1.95;;;3.40;99.90;;;;;;5073537;28;20518;-80
2021/12/02 01:16:33;;;;;;;7.03;1.30;;;3.50;99.90;;;;;;5073473;28;20050;-80
2021/12/02 01:18:59;;;;;;;11.00;1.52;;;3.50;99.90;;;;;;5072111;28;20581;-80
2021/12/02 01:21:27;;;;;;;9.05;1.63;;;3.50;99.90;;;;;;5073360;28;20024;-80
2021/12/02 01:24:02;;;;;;;9.98;1.60;;;3.60;99.90;;;;;;5046461;28;20021;-80
2021/12/02 01:26:29;;;;;;;11.20;1.73;;;3.60;99.90;;;;;;5033511;28;20357;-80
2021/12/02 01:28:56;;;;;;;8.77;1.20;;;3.60;99.90;;;;;;5033932;28;20061;-80
2021/12/02 01:31:23;;;;;;;11.00;2.70;;;3.60;99.90;;;;;;5046331;28;20032;-80
2021/12/02 01:33:50;;;;;;;10.40;1.10;;;3.70;99.90;;;;;;5053338;28;20031;-80
2021/12/02 01:36:19;;;;;;;7.28;1.10;;;3.80;99.90;;;;;;5051788;28;20049;-80
2021/12/02 01:38:44;;;;;;;8.05;1.10;;;3.80;99.90;;;;;;5053331;28;20087;-80
2021/12/02 01:41:10;;;;;;;7.03;0.65;;;3.90;99.90;;;;;;5053838;28;20017;-80
2021/12/02 01:43:52;;;;;;;5.35;0.70;;;4.00;99.90;;;;;;5053343;28;20080;-80
2021/12/02 01:46:24;;;;;;;9.07;0.93;;;4.00;99.90;;;;;;5053440;28;20055;-81
2021/12/02 01:49:02;;;;;;;6.75;0.80;;;3.90;99.90;;;;;;5053340;28;20025;-81
2021/12/02 01:51:29;;;;;;;6.18;1.00;;;3.90;99.90;;;;;;5036364;28;20022;-81
2021/12/02 01:54:09;;;;;;;3.33;0.35;;;3.80;99.90;;;;;;5033307;28;20056;-81
2021/12/02 01:56:46;;;;;;;8.45;0.82;;;3.70;99.90;;;;;;5032735;28;20029;-81
2021/12/02 01:59:19;;;;;;;12.70;0.80;;;3.70;99.90;;;;;;5033117;28;20488;-81
2021/12/02 02:01:50;;;;;;;3.97;0.75;;;3.70;99.90;;;;;;5032124;28;20466;-81
2021/12/02 02:04:17;;;;;;;10.35;1.10;;;3.70;99.90;;;;;;5033424;28;20014;-81
2021/12/02 02:06:56;;;;;;;6.55;0.90;;;3.60;99.90;;;;;;5033376;28;20026;-81
2021/12/02 02:09:27;;;;;;;7.22;0.98;;;3.60;99.90;;;;;;5031980;28;20123;-81
2021/12/02 02:11:53;;;;;;;11.07;1.03;;;3.50;99.90;;;;;;5033238;28;20033;-81
2021/12/02 02:14:21;;;;;;;6.32;0.77;;;3.40;99.90;;;;;;5032922;28;20044;-80
2021/12/02 02:16:48;;;;;;;4.10;0.60;;;3.40;99.90;;;;;;5033332;28;20029;-80
2021/12/02 02:19:14;;;;;;;6.50;0.85;;;3.30;99.90;;;;;;5033327;28;20052;-80
2021/12/02 02:21:40;;;;;;;7.18;0.70;;;3.30;99.90;;;;;;5032818;28;20028;-80
2021/12/02 02:24:12;;;;;;;6.45;1.00;;;3.40;99.90;;;;;;5046568;28;20025;-80
2021/12/02 02:26:38;;;;;;;3.78;0.60;;;3.50;99.90;;;;;;5051520;28;20478;-80
2021/12/02 02:29:07;;;;;;;5.75;0.85;;;3.60;99.90;;;;;;5053029;28;20471;-80
2021/12/02 02:31:34;;;;;;;5.05;0.70;;;3.60;99.90;;;;;;5052560;28;20025;-80
2021/12/02 02:34:00;;;;;;;3.42;0.80;;;3.60;99.90;;;;;;5053067;28;20108;-80
2021/12/02 02:36:32;;;;;;;7.57;1.00;;;3.70;99.90;;;;;;5050952;28;20128;-80
2021/12/02 02:38:59;;;;;;;6.70;0.70;;;3.80;99.90;;;;;;5051463;28;20029;-80
2021/12/02 02:41:36;;;;;;;5.15;0.43;;;3.80;99.90;;;;;;5052884;28;20047;-80
2021/12/02 02:44:03;;;;;;;8.45;0.68;;;3.80;99.90;;;;;;5052757;28;20162;-80
2021/12/02 02:46:38;;;;;;;6.18;0.70;;;3.80;99.90;;;;;;5052682;28;20066;-80
2021/12/02 02:49:11;;;;;;;4.28;0.70;;;3.80;99.90;;;;;;5052623;28;20029;-80
2021/12/02 02:51:38;;;;;;;6.63;0.70;;;3.90;99.90;;;;;;5034624;28;20040;-80
2021/12/02 02:54:06;;;;;;;7.05;0.75;;;3.80;99.90;;;;;;5032707;28;20444;-80
2021/12/02 02:56:37;;;;;;;7.75;0.90;;;3.90;99.90;;;;;;5031027;28;20087;-80
2021/12/02 03:09:51;;;;;;;5.15;0.70;;;3.80;99.90;;;;;;5032638;28;20047;-81
2021/12/02 03:12:28;;;;;;;9.98;0.70;;;3.80;99.90;;;;;;5034121;28;20191;-80
2021/12/02 03:17:30;;;;;;;8.05;0.68;;;3.60;99.90;;;;;;5033832;28;20484;-80
2021/12/02 03:19:56;;;;;;;3.97;0.70;;;3.60;99.90;;;;;;5033859;28;20201;-80
2021/12/02 03:22:22;;;;;;;7.28;0.85;;;3.70;99.90;;;;;;5034603;28;20112;-80
2021/12/02 03:24:48;;;;;;;3.53;0.75;;;3.70;99.90;;;;;;5053913;28;20036;-80
2021/12/02 03:27:14;;;;;;;4.75;0.80;;;3.80;99.90;;;;;;5053896;28;20522;-80
2021/12/02 03:29:40;;;;;;;6.40;0.63;;;3.80;99.90;;;;;;5053863;28;20399;-80
2021/12/02 03:32:07;;;;;;;1.95;0.35;;;3.70;99.90;;;;;;5053871;28;20534;-80
2021/12/02 03:34:33;;;;;;;3.47;0.30;;;3.70;99.90;;;;;;5054332;28;20432;-80
2021/12/02 03:36:59;;;;;;;2.45;0.38;;;3.80;99.90;;;;;;5055978;28;20045;-81
2021/12/02 03:39:26;;;;;;;3.40;0.70;;;3.70;99.90;;;;;;5055988;28;20045;-80
2021/12/02 03:41:52;;;;;;;2.35;0.40;;;3.70;99.90;;;;;;5055515;28;20090;-80
2021/12/02 03:44:18;;;;;;;4.25;0.63;;;3.70;99.90;;;;;;5055520;28;20079;-80
2021/12/02 03:46:44;;;;;;;3.60;0.40;;;3.70;99.90;;;;;;5055776;28;20020;-80
2021/12/02 03:49:10;;;;;;;4.18;0.43;;;3.70;99.90;;;;;;5055454;28;20032;-80
2021/12/02 03:51:36;;;;;;;4.65;1.60;;;3.60;99.90;;;;;;5037650;28;20025;-80
2021/12/02 03:54:02;;;;;;;2.05;0.40;;;3.60;99.90;;;;;;5035315;28;20025;-80
2021/12/02 03:56:28;;;;;;;2.10;0.38;;;3.50;99.90;;;;;;5035540;28;20068;-80
2021/12/02 03:58:54;;;;;;;4.07;0.35;;;3.60;99.90;;;;;;5035302;28;20037;-80
2021/12/02 04:01:21;;;;;;;3.60;0.52;;;3.50;99.90;;;;;;5035337;28;20025;-80
2021/12/02 04:03:47;;;;;;;9.02;0.50;;;3.60;99.90;;;;;;5035449;28;20479;-80
2021/12/02 04:06:14;;;;;;;2.60;0.50;;;3.60;99.90;;;;;;5035122;28;20029;-80
2021/12/02 04:09:00;;;;;;;3.85;0.45;;;3.50;99.90;;;;;;5035027;28;20022;-80
2021/12/02 04:11:40;;;;;;;1.25;0.30;;;3.50;99.90;;;;;;5035186;28;20043;-80
2021/12/02 04:16:39;;;;;;;4.32;0.57;;;3.40;99.90;;;;;;5035221;28;20029;-80
2021/12/02 04:19:07;;;;;;;3.17;0.40;;;3.40;99.90;;;;;;5033217;28;20044;-80
2021/12/02 04:21:32;;;;;;;5.85;0.70;;;3.40;99.90;;;;;;5033262;28;20120;-80
2021/12/02 04:23:58;;;;;;;2.28;0.43;;;3.40;99.90;;;;;;5048634;28;20116;-80
2021/12/02 04:26:24;;;;;;;2.97;0.60;;;3.40;99.90;;;;;;5053837;28;20040;-80
2021/12/02 04:28:50;;;;;;;6.03;0.70;;;3.40;99.90;;;;;;5054147;28;20033;-80
2021/12/02 04:31:16;;;;;;;3.28;0.55;;;3.50;99.90;;;;;;5053579;28;20028;-80
2021/12/02 04:33:43;;;;;;;4.25;0.77;;;3.50;99.90;;;;;;5053774;28;20061;-80
2021/12/02 04:36:08;;;;;;;7.57;0.90;;;3.50;99.90;;;;;;5054385;28;20041;-80
2021/12/02 04:38:35;;;;;;;6.85;1.08;;;3.60;99.90;;;;;;5054678;28;20025;-80
2021/12/02 04:41:01;;;;;;;2.78;0.77;;;3.60;99.90;;;;;;5053033;28;20020;-80
2021/12/02 04:43:27;;;;;;;6.30;0.82;;;3.60;99.90;;;;;;5053283;28;20021;-80
2021/12/02 04:45:53;;;;;;;5.75;0.70;;;3.70;99.90;;;;;;5053198;28;20087;-80
2021/12/02 04:48:20;;;;;;;3.40;0.80;;;3.70;99.90;;;;;;5054503;28;20100;-80
2021/12/02 04:50:46;;;;;;;4.40;0.82;;;3.60;99.90;;;;;;5043624;28;20059;-80
2021/12/02 04:53:12;;;;;;;4.60;0.63;;;3.60;99.90;;;;;;5034556;28;20467;-80
2021/12/02 04:55:38;;;;;;;3.53;0.80;;;3.60;99.90;;;;;;5034531;28;20049;-80
2021/12/02 04:58:05;;;;;;;4.47;0.77;;;3.60;99.90;;;;;;5034425;28;20033;-81
2021/12/02 05:00:31;;;;;;;4.68;0.73;;;3.60;99.90;;;;;;5034312;28;20470;-81
2021/12/02 05:02:57;;;;;;;7.45;0.75;;;3.60;99.90;;;;;;5034164;28;20025;-81
2021/12/02 05:05:23;;;;;;;4.75;0.70;;;3.50;99.90;;;;;;5034208;28;20029;-81
2021/12/02 05:07:52;;;;;;;4.82;0.47;;;3.40;99.90;;;;;;5034170;28;20095;-81
2021/12/02 05:10:19;;;;;;;2.95;0.52;;;3.40;99.90;;;;;;5032804;28;20120;-81
2021/12/02 05:12:44;;;;;;;4.00;0.43;;;3.40;99.90;;;;;;5032729;28;20025;-81
2021/12/02 05:15:10;;;;;;;6.75;0.55;;;3.30;99.90;;;;;;5034070;28;20380;-81
2021/12/02 05:17:36;;;;;;;1.98;0.50;;;3.30;99.90;;;;;;5032923;28;20029;-81
2021/12/02 05:20:04;;;;;;;7.15;0.50;;;3.40;99.90;;;;;;5032933;28;20033;-81
2021/12/02 05:22:29;;;;;;;7.47;0.85;;;3.40;99.90;;;;;;5031113;28;20383;-81
2021/12/02 05:24:55;;;;;;;2.85;0.57;;;3.40;99.90;;;;;;5032335;28;20025;-80
2021/12/02 05:27:21;;;;;;;5.10;0.70;;;3.40;99.90;;;;;;5032465;28;20037;-81
2021/12/02 05:29:46;;;;;;;8.82;1.00;;;3.40;99.90;;;;;;5032266;28;20033;-81
2021/12/02 05:32:12;;;;;;;5.10;0.88;;;3.30;99.90;;;;;;5049950;28;20061;-81
2021/12/02 05:34:37;;;;;;;5.75;0.70;;;3.20;99.90;;;;;;5052235;28;20108;-81
2021/12/02 05:37:04;;;;;;;4.20;1.15;;;3.10;99.90;;;;;;5052134;28;20041;-81
2021/12/02 05:39:30;;;;;;;2.38;0.93;;;3.00;99.90;;;;;;5051993;28;20403;-80
2021/12/02 05:41:56;;;;;;;5.95;1.00;;;2.90;99.90;;;;;;5050796;28;20032;-80
2021/12/02 05:44:22;;;;;;;5.72;0.90;;;2.90;99.90;;;;;;5052057;28;20365;-80
2021/12/02 05:46:48;;;;;;;6.22;0.80;;;2.80;99.90;;;;;;5052014;28;20033;-80
2021/12/02 05:49:13;;;;;;;3.45;0.50;;;2.80;99.90;;;;;;5050633;28;20025;-80
2021/12/02 05:51:41;;;;;;;7.82;0.65;;;2.80;99.90;;;;;;5051481;28;20029;-81
2021/12/02 05:54:07;;;;;;;4.78;0.50;;;2.80;99.90;;;;;;5050351;28;20025;-80
2021/12/02 05:56:33;;;;;;;7.80;0.52;;;2.90;99.90;;;;;;5051260;28;20032;-80
2021/12/02 05:58:59;;;;;;;3.22;0.50;;;2.80;99.90;;;;;;5051698;28;20032;-81
2021/12/02 06:01:24;;;;;;;5.65;0.80;;;2.90;99.90;;;;;;5051866;28;20545;-80
2021/12/02 06:03:50;;;;;;;7.20;0.60;;;3.00;99.90;;;;;;5051794;28;20525;-81
2021/12/02 06:06:17;;;;;;;7.05;0.80;;;2.90;99.90;;;;;;5051695;28;20025;-80
2021/12/02 06:08:43;;;;;;;3.45;0.95;;;3.00;99.90;;;;;;5051700;28;20461;-80
2021/12/02 06:11:08;;;;;;;3.95;0.88;;;3.00;99.90;;;;;;5050200;28;20121;-80
2021/12/02 06:13:34;;;;;;;5.03;0.70;;;2.90;99.90;;;;;;5051490;28;20041;-81
2021/12/02 06:16:00;;;;;;;4.90;0.68;;;2.90;99.90;;;;;;5050352;28;20025;-80
2021/12/02 06:18:25;;;;;;;7.50;1.00;;;2.80;99.90;;;;;;5050674;28;20029;-81
2021/12/02 06:20:53;;;;;;;11.55;1.33;;;2.70;99.90;;;;;;5051716;28;20025;-81
2021/12/02 06:23:20;;;;;;;3.75;0.90;;;2.60;99.90;;;;;;5051503;28;20460;-80
2021/12/02 06:25:47;;;;;;;6.13;0.90;;;2.70;99.90;;;;;;5051451;28;20387;-81
2021/12/02 06:28:12;;;;;;;6.70;1.05;;;2.60;99.90;;;;;;5050167;28;20052;-81
2021/12/02 06:30:38;;;;;;;3.03;0.82;;;2.60;99.90;;;;;;5051531;28;20071;-80
2021/12/02 06:33:04;;;;;;;6.70;1.33;;;2.50;99.90;;;;;;5051432;28;20427;-81
2021/12/02 06:35:30;;;;;;;6.82;1.23;;;2.40;99.90;;;;;;5051181;28;20558;-80
2021/12/02 06:37:56;;;;;;;8.63;1.10;;;2.30;99.90;;;;;;5051231;28;20033;-80
2021/12/02 06:40:22;;;;;;;8.15;1.08;;;2.30;99.90;;;;;;5051150;28;20047;-80
2021/12/02 06:42:47;;;;;;;9.27;1.40;;;2.20;99.90;;;;;;5052300;28;20475;-78
2021/12/02 06:45:13;;;;;;;6.38;1.00;;;2.10;99.90;;;;;;5052999;28;20471;-80
2021/12/02 06:47:40;;;;;;;6.93;1.05;;;2.10;99.90;;;;;;5055017;28;20017;-81
2021/12/02 06:50:10;;;;;;;7.45;1.10;;;2.00;99.90;;;;;;5052162;28;20036;-80
2021/12/02 06:52:36;;;;;;;8.63;1.23;;;2.00;99.90;;;;;;5052749;28;20546;-82
2021/12/02 06:55:03;;;;;;;6.97;0.90;;;1.90;99.90;;;;;;5055308;28;20235;-83
2021/12/02 06:57:30;;;;;;;9.05;1.30;;;1.90;99.90;;;;;;5055148;28;20087;-85
2021/12/02 06:59:55;;;;;;;11.27;1.55;;;1.80;99.90;;;;;;5053883;28;20364;-82
2021/12/02 07:02:21;;;;;;;6.72;1.10;;;1.70;99.90;;;;;;5055160;28;20032;-81
2021/12/02 07:04:50;;;;;;;8.15;1.80;;;1.60;99.90;;;;;;5055231;28;20029;-81
2021/12/02 07:07:15;;;;;;;4.53;1.40;;;1.60;99.90;;;;;;5053706;28;20029;-81
2021/12/02 07:09:42;;;;;;;8.25;1.50;;;1.60;99.90;;;;;;5054589;28;20368;-80
2021/12/02 07:12:08;;;;;;;8.27;1.52;;;1.60;99.90;;;;;;5053583;28;20357;-80
2021/12/02 07:14:34;;;;;;;8.25;1.50;;;1.60;99.90;;;;;;5056038;28;20029;-81
2021/12/02 07:17:00;;;;;;;9.32;1.50;;;1.60;99.90;;;;;;5056112;28;20382;-81
2021/12/02 07:19:25;;;;;;;7.80;2.00;;;1.70;99.90;;;;;;5055965;28;20021;-82
2021/12/02 07:21:51;;;;;;;9.35;1.95;;;1.60;99.90;;;;;;5055942;28;20020;-82
2021/12/02 07:24:17;;;;;;;9.45;2.28;;;1.60;99.90;;;;;;5038010;28;20022;-82
2021/12/02 07:26:44;;;;;;;7.82;2.00;;;1.60;99.90;;;;;;5036501;28;20201;-83
2021/12/02 07:29:15;;;;;;;8.85;2.17;;;1.60;99.90;;;;;;5036164;28;20055;-81
2021/12/02 07:31:41;;;;;;;9.87;3.00;;;1.60;99.90;;;;;;5034720;28;20037;-83
2021/12/02 07:34:08;;;;;;;7.03;2.15;;;1.50;99.90;;;;;;5041078;28;20498;-82
2021/12/02 07:36:35;;;;;;;7.40;2.08;;;1.60;99.90;;;;;;5050503;28;20529;-82
2021/12/02 07:39:05;;;;;;;6.40;2.33;;;1.60;99.90;;;;;;5051661;28;20082;-83
2021/12/02 07:41:30;;;;;;;7.63;2.63;;;1.70;99.90;;;;;;5052314;28;20025;-82
2021/12/02 07:43:56;;;;;;;11.75;2.97;;;1.80;99.90;;;;;;5056520;28;20039;-83
2021/12/02 07:46:22;;;;;;;6.32;2.63;;;1.90;99.90;;;;;;5047890;28;20024;-83
2021/12/02 07:48:48;;;;;;;9.55;2.65;;;1.90;99.90;;;;;;5055580;28;20025;-81
2021/12/02 07:51:16;;;;;;;16.35;3.70;;;1.90;99.90;;;;;;5057652;28;20379;-82
2021/12/02 07:53:43;;;;;;;13.63;3.83;;;2.00;99.90;;;;;;5053884;28;20019;-82
2021/12/02 07:56:12;;;;;;;11.82;2.90;;;2.10;99.90;;;;;;5049760;28;20110;-83
2021/12/02 07:58:43;;;;;;;11.68;2.90;;;2.00;99.90;;;;;;5033930;28;20368;-83
2021/12/02 08:01:09;;;;;;;10.40;3.25;;;2.10;99.90;;;;;;5087097;28;20025;-80
2021/12/02 08:03:35;;;;;;;13.13;2.50;;;2.10;99.90;;;;;;5056853;28;20053;-81
2021/12/02 08:06:01;;;;;;;12.20;2.83;;;2.20;99.90;;;;;;5047361;28;20049;-81
2021/12/02 08:08:27;;;;;;;11.02;2.42;;;2.30;99.90;;;;;;5042554;28;20224;-81
2021/12/02 08:10:52;;;;;;;11.20;1.88;;;2.40;99.90;;;;;;5053789;28;20056;-80
2021/12/02 08:13:25;;;;;;;26.35;9.57;;;2.50;99.90;;;;;;5041010;28;20100;-80
2021/12/02 08:15:50;;;;;;;10.18;1.50;;;2.60;99.90;;;;;;5047950;28;20029;-77
2021/12/02 08:18:16;;;;;;;13.30;3.17;;;2.60;99.90;;;;;;5049964;28;20021;-77
2021/12/02 08:20:43;;;;;;;11.35;2.28;;;2.70;99.90;;;;;;5050719;28;20017;-76
2021/12/02 08:23:09;;;;;;;16.38;6.30;;;2.80;99.90;;;;;;5047322;28;20103;-74
2021/12/02 08:25:34;;;;;;;9.48;3.03;;;3.00;99.90;;;;;;5046055;28;20096;-76
2021/12/02 08:28:01;;;;;;;14.43;3.20;;;3.00;99.90;;;;;;5047847;28;20066;-77
2021/12/02 08:30:28;;;;;;;15.15;2.92;;;3.00;99.90;;;;;;5047572;28;20057;-77
2021/12/02 08:32:54;;;;;;;9.50;2.00;;;3.00;99.90;;;;;;5050794;28;20119;-77
2021/12/02 08:35:22;;;;;;;14.77;6.85;;;2.90;99.90;;;;;;5047819;28;20029;-77
2021/12/02 08:37:50;;;;;;;17.05;3.33;;;2.90;99.90;;;;;;5050286;28;20025;-78
2021/12/02 08:43:17;;;;;;;7.28;1.88;;;3.00;99.90;;;;;;5031254;28;20041;-79
2021/12/02 08:45:44;;;;;;;7.22;1.88;;;3.10;99.90;;;;;;5030641;28;20025;-79
2021/12/02 08:48:11;;;;;;;8.45;2.40;;;3.00;99.90;;;;;;5030910;28;20034;-79
2021/12/02 08:50:38;;;;;;;5.80;1.98;;;3.00;99.90;;;;;;5029881;28;20034;-79
2021/12/02 08:53:05;;;;;;;9.93;2.70;;;3.10;99.90;;;;;;5029703;28;20911;-79
2021/12/02 08:55:31;;;;;;;9.15;2.50;;;3.00;99.90;;;;;;5030230;28;20025;-80
2021/12/02 08:57:59;;;;;;;7.75;2.03;;;3.10;99.90;;;;;;5013920;28;20060;-77
2021/12/02 09:00:33;;;;;;;6.82;1.80;;;3.20;99.90;;;;;;5030343;28;20037;-77
2021/12/02 09:02:59;;;;;;;6.38;1.77;;;;;;;;;;5031051;28;20029;-76
2021/12/02 09:05:25;;;;;;;6.45;2.00;;;3.30;99.90;;;;;;5029388;28;20040;-76
2021/12/02 09:07:50;;;;;;;7.53;1.75;;;3.50;99.90;;;;;;5024430;28;20037;-77
2021/12/02 09:10:17;;;;;;;9.77;2.90;;;3.50;99.90;;;;;;5018260;28;20029;-77
2021/12/02 09:12:45;;;;;;;5.28;2.17;;;3.60;99.90;;;;;;5024789;28;20151;-77
2021/12/02 09:15:14;;;;;;;8.52;1.58;;;3.50;99.90;;;;;;5030204;28;20053;-76
2021/12/02 09:17:40;;;;;;;2.92;1.45;;;3.30;99.90;;;;;;5030239;28;20029;-74
2021/12/02 09:20:08;;;;;;;4.38;1.50;;;3.40;99.90;;;;;;5044913;28;20041;-76
2021/12/02 09:22:34;;;;;;;5.10;1.58;;;3.20;99.90;;;;;;5046758;28;20525;-77
2021/12/02 09:24:59;;;;;;;7.20;1.52;;;3.40;99.90;;;;;;5046379;28;20029;-76
2021/12/02 09:27:25;;;;;;;8.63;1.98;;;3.50;99.90;;;;;;5047316;28;20027;-78
2021/12/02 09:29:51;;;;;;;4.78;1.60;;;3.40;99.90;;;;;;5037529;28;20036;-77
2021/12/02 09:32:17;;;;;;;4.55;1.73;;;3.40;99.90;;;;;;5045772;28;20025;-77
2021/12/02 09:34:43;;;;;;;4.30;1.80;;;3.30;99.90;;;;;;5045041;28;20029;-77
2021/12/02 09:37:09;;;;;;;7.68;2.05;;;3.10;99.90;;;;;;5051234;28;20043;-77
2021/12/02 09:39:35;;;;;;;3.42;1.50;;;3.20;99.90;;;;;;5051618;28;20044;-77
2021/12/02 09:42:03;;;;;;;5.38;1.52;;;3.20;99.90;;;;;;5052049;28;20028;-78
2021/12/02 09:44:29;;;;;;;6.82;2.03;;;3.10;99.90;;;;;;5052058;28;20017;-77
2021/12/02 09:46:55;;;;;;;3.25;1.50;;;3.10;99.90;;;;;;5052201;28;20028;-77
2021/12/02 09:49:24;;;;;;;6.50;1.80;;;3.00;99.90;;;;;;5052156;28;20090;-77
2021/12/02 09:57:22;;;;;;;14.55;4.80;;;3.20;99.90;;;;;;5069007;28;20068;-77
2021/12/02 09:59:50;;;;;;;6.47;2.20;;;3.40;99.90;;;;;;5061628;28;20039;-77
2021/12/02 10:02:19;;;;;;;19.60;8.05;;;3.50;99.90;;;;;;5069600;28;20025;-76
2021/12/02 10:04:54;;;;;;;5.75;1.30;;;3.60;99.90;;;;;;5069801;28;20082;-76
2021/12/02 10:07:31;;;;;;;6.80;1.42;;;3.50;99.90;;;;;;5069804;28;20139;-77
2021/12/02 10:16:30;;;;;;;5.75;2.10;;;3.60;99.90;;;;;;5005396;28;20030;-84
2021/12/02 10:19:03;;;;;;;3.20;1.35;;;3.70;99.90;;;;;;4971616;28;20058;-84
2021/12/02 10:24:24;;;;;;;3.65;1.38;;;3.80;99.90;;;;;;4988047;28;19972;-78
2021/12/02 10:26:55;;;;;;;7.03;1.60;;;3.90;99.90;;;;;;4974963;28;20708;-79
2021/12/02 10:29:25;;;;;;;5.05;1.30;;;4.00;99.90;;;;;;4991137;28;20040;-79
2021/12/02 10:32:11;;;;;;;4.63;1.20;;;3.90;99.90;;;;;;4974723;28;20421;-79
2021/12/02 10:35:06;;;;;;;6.53;3.22;;;4.10;99.90;;;;;;4974154;28;20039;-79
2021/12/02 10:37:35;;;;;;;6.55;1.10;;;4.30;99.90;;;;;;4971003;28;20054;-79
2021/12/02 10:40:11;;;;;;;5.25;1.10;;;4.40;99.90;;;;;;4953736;28;20068;-79
2021/12/02 10:42:41;;;;;;;3.75;0.80;;;4.70;99.90;;;;;;4969903;28;20034;-79
2021/12/02 10:45:17;;;;;;;3.47;0.85;;;5.00;99.90;;;;;;4971778;28;20051;-79
2021/12/02 10:47:48;;;;;;;4.82;0.77;;;5.40;99.90;;;;;;4971327;28;20385;-79
2021/12/02 10:50:14;;;;;;;5.28;0.80;;;5.40;99.90;;;;;;5020183;28;20496;-79
2021/12/02 10:52:40;;;;;;;4.82;0.77;;;5.60;99.90;;;;;;5032381;28;20034;-79
2021/12/02 10:55:11;;;;;;;3.47;0.70;;;5.70;99.90;;;;;;5032503;28;20026;-79
2021/12/02 10:57:44;;;;;;;3.80;0.65;;;5.90;99.90;;;;;;5044360;28;20024;-78
2021/12/02 11:00:13;;;;;;;2.50;1.15;;;5.80;99.90;;;;;;5052279;28;20159;-79
2021/12/02 11:02:53;;;;;;;2.38;0.82;;;5.70;99.90;;;;;;5052306;28;20036;-79
2021/12/02 11:05:25;;;;;;;2.00;0.50;;;5.70;99.90;;;;;;5052385;28;20017;-79
2021/12/02 11:08:01;;;;;;;1.27;0.50;;;5.60;99.90;;;;;;5052201;28;20324;-79
2021/12/02 11:10:34;;;;;;;4.47;1.35;;;5.60;99.90;;;;;;5050800;28;20467;-79
2021/12/02 11:13:00;;;;;;;3.25;0.60;;;5.60;99.90;;;;;;5052180;28;20036;-79
2021/12/02 11:15:28;;;;;;;3.20;0.50;;;5.40;99.90;;;;;;5050792;28;20028;-79
2021/12/02 11:18:05;;;;;;;2.75;0.85;;;5.40;99.90;;;;;;5051822;28;20037;-79
2021/12/02 11:20:35;;;;;;;3.85;0.70;;;5.40;99.90;;;;;;5051413;28;20025;-78
2021/12/02 11:23:03;;;;;;;6.05;1.00;;;5.20;99.90;;;;;;5051388;28;20018;-77
2021/12/02 11:25:30;;;;;;;1.20;0.60;;;5.10;99.90;;;;;;5051734;28;20085;-79
2021/12/02 11:27:57;;;;;;;1.05;0.50;;;5.20;99.90;;;;;;5051244;28;20051;-78
2021/12/02 11:30:28;;;;;;;2.28;0.50;;;5.10;99.90;;;;;;5053569;28;20116;-82
2021/12/02 11:33:01;;;;;;;2.88;0.55;;;4.90;99.90;;;;;;5054529;28;20025;-83
2021/12/02 11:35:32;;;;;;;1.80;0.43;;;5.00;99.90;;;;;;5055791;28;20501;-83
2021/12/02 11:38:04;;;;;;;1.63;0.55;;;5.00;99.90;;;;;;5055873;28;20475;-83
2021/12/02 11:40:42;;;;;;;32.28;14.10;;;4.90;99.90;;;;;;5055740;28;20036;-84
2021/12/02 11:43:10;;;;;;;19.80;8.65;;;4.90;99.90;;;;;;5055630;28;20037;-85
2021/12/02 11:45:43;;;;;;;3.28;2.00;;;5.00;99.90;;;;;;5056136;28;20025;-85
2021/12/02 11:48:11;;;;;;;1.10;0.80;;;4.90;99.90;;;;;;5054199;28;20036;-84
2021/12/02 11:50:37;;;;;;;0.90;0.68;;;4.80;99.90;;;;;;5045998;28;20064;-84
2021/12/02 11:53:02;;;;;;;3.78;1.10;;;4.80;99.90;;;;;;5034224;28;20068;-84
2021/12/02 11:55:31;;;;;;;2.67;0.65;;;4.60;99.90;;;;;;5055050;28;20037;-84
2021/12/02 11:57:57;;;;;;;2.15;0.70;;;4.60;99.90;;;;;;5055336;28;20025;-85
2021/12/02 12:00:25;;;;;;;1.67;0.73;;;4.50;99.90;;;;;;5055412;28;20082;-84
2021/12/02 12:03:06;;;;;;;1.67;0.70;;;4.50;99.90;;;;;;5055374;28;20128;-84
2021/12/02 12:05:38;;;;;;;1.00;0.55;;;4.40;99.90;;;;;;5055405;28;20371;-84
2021/12/02 12:08:05;;;;;;;0.77;0.50;;;4.30;99.90;;;;;;5053777;28;20508;-85
2021/12/02 12:10:38;;;;;;;3.28;0.70;;;4.50;99.90;;;;;;5054905;28;20029;-85
2021/12/02 12:13:17;;;;;;;3.03;1.05;;;4.70;99.90;;;;;;5052617;28;20475;-84
2021/12/02 12:15:52;;;;;;;3.42;0.82;;;4.90;99.90;;;;;;5049914;28;20154;-83
2021/12/02 12:18:24;;;;;;;1.48;0.70;;;4.60;99.90;;;;;;5051518;28;20017;-84
2021/12/02 12:20:59;;;;;;;1.88;0.90;;;4.50;99.90;;;;;;5053818;28;20383;-82
2021/12/02 12:23:32;;;;;;;3.97;1.33;;;4.40;99.90;;;;;;5049975;28;20044;-81
2021/12/02 12:26:31;;;;;;;3.45;1.08;;;4.40;99.90;;;;;;5034982;28;20025;-80
2021/12/02 12:29:09;;;;;;;10.80;5.22;;;4.50;99.90;;;;;;5041819;28;20025;-79
2021/12/02 12:32:03;;;;;;;2.25;1.23;;;4.60;99.90;;;;;;5034842;28;20091;-79
2021/12/02 12:37:48;;;;;;;4.18;1.33;;;4.60;99.90;;;;;;5032316;28;20467;-79
2021/12/02 12:40:40;;;;;;;5.55;2.90;;;4.60;99.90;;;;;;5050744;28;20539;-79
2021/12/02 12:43:08;;;;;;;3.45;1.15;;;4.60;99.90;;;;;;5051887;28;20025;-77
2021/12/02 12:45:42;;;;;;;6.47;4.10;;;4.50;99.90;;;;;;5051956;28;20052;-77
2021/12/02 12:48:25;;;;;;;2.85;1.98;;;4.50;99.90;;;;;;5051995;28;20419;-77
2021/12/02 12:50:51;;;;;;;4.88;1.85;;;4.60;99.90;;;;;;5051964;28;20064;-77
2021/12/02 12:53:32;;;;;;;2.00;1.80;;;4.60;99.90;;;;;;5051006;28;20056;-77
2021/12/02 12:55:57;;;;;;;2.67;1.77;;;4.70;99.90;;;;;;5051205;28;20547;-77
2021/12/02 12:58:26;;;;;;;4.13;1.35;;;4.60;99.90;;;;;;5051568;28;20029;-77
2021/12/02 13:00:55;;;;;;;2.75;1.17;;;4.70;99.90;;;;;;5051102;28;20056;-77
2021/12/02 13:03:30;;;;;;;4.68;1.50;;;4.70;99.90;;;;;;5051244;28;20128;-77
2021/12/02 13:06:24;;;;;;;2.88;1.15;;;4.80;99.90;;;;;;5050839;28;20024;-78
2021/12/02 13:09:01;;;;;;;2.80;1.10;;;4.90;99.90;;;;;;5043125;28;20033;-78
2021/12/02 13:11:30;;;;;;;5.35;1.00;;;4.80;99.90;;;;;;5050391;28;20108;-77
2021/12/02 13:13:58;;;;;;;2.97;1.00;;;4.80;99.90;;;;;;5049203;28;20047;-77
2021/12/02 13:16:23;;;;;;;2.65;1.10;;;4.80;99.90;;;;;;5052440;28;20028;-78
2021/12/02 13:18:56;;;;;;;3.75;1.60;;;4.90;99.90;;;;;;5053221;28;20021;-77
2021/12/02 13:21:29;;;;;;;5.32;0.90;;;4.80;99.90;;;;;;5053592;28;20094;-77
2021/12/02 13:24:14;;;;;;;;;;;4.90;99.90;;;;;;5051524;28;20057;-77
2021/12/02 13:26:43;;;;;;;6.07;1.42;;;4.80;99.90;;;;;;5046130;28;19909;-78
2021/12/02 13:29:10;;;;;;;3.63;1.42;;;5.00;99.90;;;;;;5053055;28;20112;-76
2021/12/02 13:31:38;;;;;;;2.53;1.10;;;5.10;99.90;;;;;;5052869;28;20029;-77
2021/12/02 13:34:06;;;;;;;4.40;1.30;;;5.10;99.90;;;;;;5052353;28;20029;-77
2021/12/02 13:36:35;;;;;;;5.22;1.42;;;5.10;99.90;;;;;;5051994;28;20037;-77
2021/12/02 13:39:18;;;;;;;3.53;1.50;;;5.10;99.90;;;;;;5052090;28;20064;-76
2021/12/02 13:42:02;;;;;;;3.92;1.55;;;5.10;99.90;;;;;;5052119;28;20092;-77
2021/12/02 13:44:38;;;;;;;5.63;1.55;;;5.10;99.90;;;;;;5051643;28;20052;-76